createdAt,value
2023-05-15T00:00:03.254Z,2.75
2023-05-15T00:02:30.415Z,2.55
2023-05-15T00:04:58.923Z,2.10
2023-05-15T00:07:26.106Z,1.05
2023-05-15T00:09:53.199Z,1.80
2023-05-15T00:12:20.274Z,2.72
2023-05-15T00:14:47.354Z,1.98
2023-05-15T00:17:14.486Z,1.67
2023-05-15T00:19:41.576Z,2.63
2023-05-15T00:22:10.040Z,1.60
2023-05-15T00:24:37.179Z,1.38
2023-05-15T00:27:04.592Z,1.33
2023-05-15T00:29:31.667Z,1.42
2023-05-15T00:31:58.865Z,0.93
2023-05-15T00:34:26.092Z,1.60
2023-05-15T00:36:53.480Z,1.38
2023-05-15T00:39:21.900Z,1.85
2023-05-15T00:41:51.533Z,1.13
2023-05-15T00:44:19.904Z,1.63
2023-05-15T00:46:47.212Z,2.08
2023-05-15T00:49:14.605Z,1.95
2023-05-15T00:51:42.190Z,1.38
2023-05-15T00:54:10.662Z,1.08
2023-05-15T00:56:40.199Z,1.60
2023-05-15T00:59:08.083Z,2.55
2023-05-15T01:01:35.558Z,1.90
2023-05-15T01:04:03.330Z,2.25
2023-05-15T01:06:31.269Z,1.52
2023-05-15T01:09:00.824Z,1.10
2023-05-15T01:11:28.837Z,1.40
2023-05-15T01:13:57.295Z,1.52
2023-05-15T01:16:24.390Z,1.20
2023-05-15T01:18:51.569Z,1.55
2023-05-15T01:21:44.388Z,1.50
2023-05-15T01:24:32.508Z,1.13
2023-05-15T01:27:18.693Z,1.58
2023-05-15T01:29:55.505Z,1.73
2023-05-15T01:32:39.318Z,2.03
2023-05-15T01:35:13.290Z,0.80
2023-05-15T01:37:42.760Z,1.42
2023-05-15T01:40:14.583Z,1.33
2023-05-15T01:42:53.889Z,1.90
2023-05-15T01:45:23.552Z,0.90
2023-05-15T01:47:54.386Z,0.93
2023-05-15T01:50:22.043Z,1.67
2023-05-15T01:52:51.955Z,2.53
2023-05-15T01:55:19.518Z,2.03
2023-05-15T01:57:50.241Z,1.20
2023-05-15T02:00:18.258Z,1.55
2023-05-15T02:02:46.725Z,1.23
2023-05-15T02:05:15.038Z,1.17
2023-05-15T02:07:43.734Z,1.00
2023-05-15T02:10:12.271Z,0.85
2023-05-15T02:12:41.075Z,1.40
2023-05-15T02:15:11.929Z,1.27
2023-05-15T02:17:39.157Z,1.25
2023-05-15T02:20:07.747Z,1.20
2023-05-15T02:22:34.879Z,0.85
2023-05-15T02:25:02.020Z,1.05
2023-05-15T02:27:35.930Z,1.15
2023-05-15T02:32:43.641Z,1.08
2023-05-15T02:35:18.332Z,2.17
2023-05-15T02:37:49.400Z,1.23
2023-05-15T02:40:17.129Z,2.10
2023-05-15T02:42:46.170Z,0.90
2023-05-15T02:45:14.036Z,1.42
2023-05-15T02:47:42.717Z,1.13
2023-05-15T02:50:10.863Z,0.80
2023-05-15T02:52:38.046Z,0.98
2023-05-15T02:55:06.088Z,1.42
2023-05-15T02:57:33.187Z,1.67
2023-05-15T03:00:00.655Z,1.20
2023-05-15T03:02:28.090Z,0.93
2023-05-15T03:04:56.530Z,1.10
2023-05-15T03:07:23.704Z,0.85
2023-05-15T03:09:50.776Z,1.45
2023-05-15T03:12:17.855Z,0.77
2023-05-15T03:14:44.948Z,1.58
2023-05-15T03:17:12.121Z,1.40
2023-05-15T03:19:39.245Z,0.88
2023-05-15T03:22:07.761Z,0.70
2023-05-15T03:24:34.846Z,3.40
2023-05-15T03:27:01.938Z,2.45
2023-05-15T03:29:29.047Z,1.30
2023-05-15T03:31:56.155Z,2.25
2023-05-15T03:34:23.237Z,2.38
2023-05-15T03:36:50.341Z,2.03
2023-05-15T03:39:18.739Z,2.40
2023-05-15T03:41:45.806Z,1.25
2023-05-15T03:44:12.937Z,2.13
2023-05-15T03:46:40.081Z,3.78
2023-05-15T03:49:07.188Z,2.17
2023-05-15T03:51:34.806Z,2.15
2023-05-15T03:54:01.916Z,5.90
2023-05-15T03:56:30.830Z,6.13
2023-05-15T03:58:58.880Z,3.35
2023-05-15T04:01:25.985Z,3.42
2023-05-15T04:03:53.078Z,2.78
2023-05-15T04:06:20.187Z,3.20
2023-05-15T04:08:47.259Z,2.28
2023-05-15T04:11:14.353Z,12.35
2023-05-15T04:13:42.971Z,18.70
2023-05-15T04:16:10.107Z,20.52
2023-05-15T04:18:37.266Z,21.60
2023-05-15T04:21:04.389Z,18.52
2023-05-15T04:23:31.477Z,23.15
2023-05-15T04:25:58.696Z,18.77
2023-05-15T04:28:25.847Z,15.80
2023-05-15T04:30:54.236Z,15.45
2023-05-15T04:33:21.318Z,16.88
2023-05-15T04:35:48.415Z,15.77
2023-05-15T04:38:15.495Z,18.70
2023-05-15T04:40:42.574Z,22.15
2023-05-15T04:43:09.676Z,17.00
2023-05-15T04:45:36.817Z,15.63
2023-05-15T04:48:05.835Z,18.95
2023-05-15T04:50:32.980Z,12.88
2023-05-15T04:53:00.069Z,17.25
2023-05-15T04:55:27.429Z,13.50
2023-05-15T04:57:54.645Z,17.30
2023-05-15T05:00:21.916Z,18.20
2023-05-15T05:02:49.185Z,11.57
2023-05-15T05:05:17.840Z,16.80
2023-05-15T05:07:44.943Z,15.75
2023-05-15T05:10:12.360Z,13.95
2023-05-15T05:12:39.483Z,11.52
2023-05-15T05:15:07.881Z,15.38
2023-05-15T05:17:34.969Z,13.27
2023-05-15T05:20:02.104Z,11.23
2023-05-15T05:22:30.768Z,11.30
2023-05-15T05:24:57.873Z,11.73
2023-05-15T05:27:25.001Z,12.10
2023-05-15T05:29:52.094Z,13.65
2023-05-15T05:32:19.510Z,9.68
2023-05-15T05:34:46.675Z,10.88
2023-05-15T05:37:13.756Z,12.70
2023-05-15T05:39:42.181Z,9.02
2023-05-15T05:42:09.289Z,11.90
2023-05-15T05:44:36.417Z,10.13
2023-05-15T05:47:03.834Z,11.13
2023-05-15T05:49:31.130Z,13.35
2023-05-15T05:52:05.224Z,10.02
2023-05-15T05:54:32.309Z,14.35
2023-05-15T05:57:00.945Z,10.27
2023-05-15T05:59:28.181Z,10.30
2023-05-15T06:01:55.426Z,9.80
2023-05-15T06:04:22.609Z,9.10
2023-05-15T06:06:49.803Z,8.60
2023-05-15T06:09:16.918Z,7.47
2023-05-15T06:11:43.979Z,7.97
2023-05-15T06:14:12.483Z,8.38
2023-05-15T06:16:39.649Z,8.48
2023-05-15T06:19:06.825Z,9.57
2023-05-15T06:21:33.976Z,10.07
2023-05-15T06:24:01.087Z,7.32
2023-05-15T06:26:28.210Z,8.50
2023-05-15T06:28:55.298Z,8.48
2023-05-15T06:31:23.846Z,9.23
2023-05-15T06:33:51.192Z,8.65
2023-05-15T06:36:18.269Z,9.00
2023-05-15T06:38:45.365Z,10.82
2023-05-15T06:41:12.440Z,9.30
2023-05-15T06:43:39.557Z,6.45
2023-05-15T06:46:06.744Z,6.72
2023-05-15T06:48:36.133Z,8.38
2023-05-15T06:51:03.549Z,6.95
2023-05-15T06:53:30.671Z,7.13
2023-05-15T06:55:58.532Z,7.25
2023-05-15T06:58:25.665Z,7.15
2023-05-15T07:00:54.225Z,6.43
2023-05-15T07:03:23.221Z,8.05
2023-05-15T07:05:51.637Z,7.60
2023-05-15T07:08:18.730Z,6.18
2023-05-15T07:10:46.219Z,7.53
2023-05-15T07:13:13.290Z,7.78
2023-05-15T07:15:40.391Z,6.80
2023-05-15T07:18:07.556Z,7.30
2023-05-15T07:20:35.288Z,6.05
2023-05-15T07:23:04.006Z,7.22
2023-05-15T07:25:31.133Z,6.32
2023-05-15T07:27:58.197Z,7.60
2023-05-15T07:30:25.797Z,7.05
2023-05-15T07:32:53.145Z,6.35
2023-05-15T07:35:20.321Z,5.25
2023-05-15T07:37:47.526Z,6.30
2023-05-15T07:40:15.957Z,7.78
2023-05-15T07:42:44.367Z,5.50
2023-05-15T07:45:11.527Z,6.25
2023-05-15T07:47:38.716Z,4.72
2023-05-15T07:50:06.751Z,4.90
2023-05-15T07:52:33.876Z,6.63
2023-05-15T07:55:00.942Z,5.60
2023-05-15T07:57:29.400Z,6.97
2023-05-15T07:59:56.728Z,4.47
2023-05-15T08:02:23.951Z,6.63
2023-05-15T08:04:51.106Z,6.00
2023-05-15T08:07:18.325Z,5.28
2023-05-15T08:09:45.422Z,5.28
2023-05-15T08:12:16.264Z,4.22
2023-05-15T08:14:44.802Z,4.45
2023-05-15T08:17:12.219Z,4.13
2023-05-15T08:19:39.342Z,5.10
2023-05-15T08:22:06.488Z,4.72
2023-05-15T08:24:33.766Z,5.20
2023-05-15T08:27:00.863Z,5.25
2023-05-15T08:29:27.947Z,4.38
2023-05-15T08:31:56.348Z,6.82
2023-05-15T08:34:23.447Z,3.78
2023-05-15T08:36:50.747Z,6.30
2023-05-15T08:39:17.842Z,5.20
2023-05-15T08:41:50.841Z,5.55
2023-05-15T08:44:19.084Z,3.88
2023-05-15T08:46:47.712Z,4.28
2023-05-15T08:49:25.575Z,5.50
2023-05-15T08:51:53.790Z,4.05
2023-05-15T08:54:21.564Z,3.85
2023-05-15T08:56:49.073Z,3.78
2023-05-15T08:59:16.278Z,4.38
2023-05-15T09:01:43.423Z,3.17
2023-05-15T09:04:10.730Z,4.38
2023-05-15T09:06:40.724Z,5.10
2023-05-15T09:09:09.454Z,3.45
2023-05-15T09:11:37.970Z,2.80
2023-05-15T09:14:05.029Z,4.32
2023-05-15T09:16:32.126Z,4.22
2023-05-15T09:19:00.538Z,3.78
2023-05-15T09:21:29.122Z,4.00
2023-05-15T09:24:18.487Z,3.83
2023-05-15T09:26:46.848Z,4.60
2023-05-15T09:29:18.244Z,4.47
2023-05-15T09:31:47.196Z,2.85
2023-05-15T09:34:14.696Z,5.13
2023-05-15T09:36:44.570Z,4.88
2023-05-15T09:39:13.038Z,3.78
2023-05-15T09:41:42.060Z,5.45
2023-05-15T09:44:20.607Z,3.45
2023-05-15T09:46:50.275Z,5.05
2023-05-15T09:49:17.912Z,4.38
2023-05-15T09:51:45.725Z,3.03
2023-05-15T09:54:17.570Z,8.32
2023-05-15T09:56:45.342Z,3.67
2023-05-15T09:59:13.866Z,3.33
2023-05-15T10:01:42.840Z,5.30
2023-05-15T10:04:10.125Z,2.80
2023-05-15T10:06:40.065Z,2.40
2023-05-15T10:09:09.276Z,4.07
2023-05-15T10:11:39.181Z,3.10
2023-05-15T10:14:07.168Z,5.45
2023-05-15T10:16:36.540Z,3.22
2023-05-15T10:19:05.494Z,3.67
2023-05-15T10:21:34.707Z,3.70
2023-05-15T10:24:03.118Z,2.35
2023-05-15T10:26:37.560Z,3.47
2023-05-15T10:29:06.952Z,3.17
2023-05-15T10:31:34.194Z,2.20
2023-05-15T10:34:02.190Z,3.25
2023-05-15T10:36:30.063Z,3.45
2023-05-15T10:38:59.584Z,4.93
2023-05-15T10:41:28.469Z,2.58
2023-05-15T10:43:58.924Z,2.47
2023-05-15T10:46:26.568Z,2.92
2023-05-15T10:48:53.760Z,2.58
2023-05-15T10:51:25.929Z,2.75
2023-05-15T10:53:54.037Z,2.50
2023-05-15T10:56:21.485Z,3.63
2023-05-15T10:58:49.761Z,3.10
2023-05-15T11:01:36.850Z,2.65
2023-05-15T11:04:14.070Z,2.22
2023-05-15T11:06:43.274Z,2.30
2023-05-15T11:09:35.953Z,2.55
2023-05-15T11:12:04.617Z,3.17
2023-05-15T11:14:32.837Z,2.65
2023-05-15T11:17:02.865Z,3.47
2023-05-15T11:19:55.048Z,2.47
2023-05-15T11:22:27.186Z,2.95
2023-05-15T11:24:57.808Z,2.72
2023-05-15T11:27:26.400Z,2.47
2023-05-15T11:30:13.647Z,2.25
2023-05-15T11:32:49.006Z,2.28
2023-05-15T11:35:20.940Z,1.73
2023-05-15T11:37:50.173Z,2.30
2023-05-15T11:40:21.941Z,2.55
2023-05-15T11:43:06.240Z,3.40
2023-05-15T11:45:35.596Z,3.03
2023-05-15T11:48:05.746Z,2.28
2023-05-15T11:50:34.297Z,3.22
2023-05-15T11:53:05.940Z,2.72
2023-05-15T11:55:34.543Z,2.72
2023-05-15T11:58:02.052Z,2.17
2023-05-15T12:00:29.189Z,2.95
2023-05-15T12:02:56.638Z,2.80
2023-05-15T12:05:25.172Z,2.47
2023-05-15T12:07:52.310Z,3.03
2023-05-15T12:10:19.423Z,2.95
2023-05-15T12:12:46.698Z,2.42
2023-05-15T12:15:15.573Z,2.72
2023-05-15T12:17:44.542Z,2.20
2023-05-15T12:20:18.018Z,4.05
2023-05-15T12:22:46.470Z,3.22
2023-05-15T12:25:15.272Z,2.50
2023-05-15T12:27:43.005Z,2.72
2023-05-15T12:30:13.401Z,2.03
2023-05-15T12:32:40.814Z,2.10
2023-05-15T12:35:09.780Z,2.67
2023-05-15T12:37:36.960Z,2.30
2023-05-15T12:40:07.457Z,2.13
2023-05-15T12:42:38.970Z,2.03
2023-05-15T12:45:12.954Z,3.00
2023-05-15T12:50:13.368Z,2.50
2023-05-15T12:52:40.750Z,2.58
2023-05-15T12:55:16.197Z,2.50
2023-05-15T12:57:43.849Z,2.80
2023-05-15T13:00:12.198Z,2.67
2023-05-15T13:02:39.527Z,2.97
2023-05-15T13:05:07.688Z,2.38
2023-05-15T13:07:34.903Z,2.25
2023-05-15T13:10:02.848Z,2.42
2023-05-15T13:12:37.097Z,1.70
2023-05-15T13:15:05.766Z,3.28
2023-05-15T13:17:32.989Z,2.03
2023-05-15T13:20:00.212Z,1.90
2023-05-15T13:22:28.137Z,2.20
2023-05-15T13:24:56.848Z,2.03
2023-05-15T13:27:23.949Z,2.20
2023-05-15T13:29:52.419Z,3.78
2023-05-15T13:32:19.488Z,2.20
2023-05-15T13:34:46.580Z,3.28
2023-05-15T13:37:15.720Z,1.85
2023-05-15T13:39:42.805Z,1.77
2023-05-15T13:42:09.917Z,3.78
2023-05-15T13:44:36.986Z,2.28
2023-05-15T13:47:06.027Z,1.90
2023-05-15T13:49:33.304Z,2.20
2023-05-15T13:52:00.365Z,1.98
2023-05-15T13:54:27.440Z,2.38
2023-05-15T13:56:54.534Z,2.13
2023-05-15T13:59:21.622Z,2.13
2023-05-15T14:01:48.732Z,2.08
2023-05-15T14:04:17.272Z,2.20
2023-05-15T14:06:44.473Z,2.53
2023-05-15T14:09:11.613Z,2.50
2023-05-15T14:11:38.729Z,2.40
2023-05-15T14:14:05.865Z,2.65
2023-05-15T14:16:32.991Z,2.38
2023-05-15T14:19:00.194Z,1.95
2023-05-15T14:21:28.651Z,2.20
2023-05-15T14:23:55.712Z,2.70
2023-05-15T14:26:22.806Z,3.17
2023-05-15T14:28:49.905Z,5.00
2023-05-15T14:31:16.992Z,3.15
2023-05-15T14:33:44.083Z,5.70
2023-05-15T14:36:11.159Z,3.58
2023-05-15T14:38:39.564Z,4.95
2023-05-15T14:41:06.656Z,2.85
2023-05-15T14:43:33.747Z,1.90
2023-05-15T14:46:00.863Z,5.40
2023-05-15T14:48:28.005Z,3.33
2023-05-15T14:50:55.134Z,2.78
2023-05-15T14:53:22.382Z,2.17
2023-05-15T14:55:50.869Z,2.05
2023-05-15T14:58:17.954Z,3.15
2023-05-15T15:00:45.051Z,3.85
2023-05-15T15:03:12.303Z,2.20
2023-05-15T15:05:39.506Z,3.38
2023-05-15T15:08:07.750Z,5.45
2023-05-15T15:10:36.512Z,3.92
2023-05-15T15:13:05.913Z,2.03
2023-05-15T15:15:34.560Z,2.25
2023-05-15T15:18:01.715Z,2.47
2023-05-15T15:20:29.373Z,2.22
2023-05-15T15:22:56.593Z,2.45
2023-05-15T15:25:24.130Z,3.63
2023-05-15T15:27:51.431Z,2.20
2023-05-15T15:30:19.884Z,2.15
2023-05-15T15:32:47.003Z,3.25
2023-05-15T15:35:14.191Z,1.90
2023-05-15T15:37:41.282Z,2.10
2023-05-15T15:40:08.941Z,2.90
2023-05-15T15:42:36.069Z,2.00
2023-05-15T15:45:03.789Z,2.40
2023-05-15T15:47:32.349Z,2.15
2023-05-15T15:49:59.578Z,1.88
2023-05-15T15:52:27.107Z,1.98
2023-05-15T15:54:54.203Z,2.08
2023-05-15T15:57:21.353Z,3.25
2023-05-15T15:59:48.766Z,2.55
2023-05-15T16:02:16.363Z,2.20
2023-05-15T16:04:44.875Z,2.22
2023-05-15T16:07:12.102Z,1.67
2023-05-15T16:09:39.266Z,2.10
2023-05-15T16:12:06.622Z,2.85
2023-05-15T16:14:33.753Z,1.55
2023-05-15T16:17:02.430Z,2.60
2023-05-15T16:19:29.620Z,2.55
2023-05-15T16:21:58.325Z,2.00
2023-05-15T16:24:25.457Z,2.53
2023-05-15T16:26:52.545Z,2.83
2023-05-15T16:29:19.613Z,2.13
2023-05-15T16:31:46.957Z,2.60
2023-05-15T16:34:14.692Z,2.20
2023-05-15T16:36:41.749Z,3.88
2023-05-15T16:39:10.203Z,4.97
2023-05-15T16:41:37.287Z,2.85
2023-05-15T16:44:04.727Z,3.45
2023-05-15T16:46:31.946Z,2.80
2023-05-15T16:48:59.169Z,3.33
2023-05-15T16:51:26.400Z,4.03
2023-05-15T16:53:53.576Z,2.50
2023-05-15T16:56:22.101Z,2.80
2023-05-15T16:58:49.181Z,2.22
2023-05-15T17:01:16.357Z,3.40
2023-05-15T17:03:43.650Z,3.10
2023-05-15T17:06:10.915Z,2.17
2023-05-15T17:08:38.052Z,3.22
2023-05-15T17:11:05.488Z,2.33
2023-05-15T17:13:33.909Z,1.73
2023-05-15T17:16:01.071Z,2.42
2023-05-15T17:18:28.251Z,2.60
2023-05-15T17:20:55.371Z,3.58
2023-05-15T17:23:23.135Z,5.35
2023-05-15T17:25:50.312Z,2.70
2023-05-15T17:28:17.415Z,2.90
2023-05-15T17:30:45.853Z,2.95
2023-05-15T17:33:13.018Z,3.25
2023-05-15T17:35:40.198Z,3.25
2023-05-15T17:38:07.275Z,4.13
2023-05-15T17:40:34.415Z,4.03
2023-05-15T17:43:01.738Z,2.85
2023-05-15T17:45:28.873Z,6.38
2023-05-15T17:47:57.325Z,4.55
2023-05-15T17:50:24.421Z,2.80
2023-05-15T17:52:51.526Z,2.45
2023-05-15T17:55:18.620Z,3.35
2023-05-15T17:57:45.703Z,2.47
2023-05-15T18:00:14.010Z,1.88
2023-05-15T18:02:41.099Z,2.88
2023-05-15T18:05:10.027Z,3.13
2023-05-15T18:07:37.269Z,2.83
2023-05-15T18:10:05.592Z,3.80
2023-05-15T18:12:32.709Z,2.78
2023-05-15T18:14:59.802Z,3.10
2023-05-15T18:17:26.917Z,2.65
2023-05-15T18:19:54.039Z,2.15
2023-05-15T18:22:22.495Z,3.25
2023-05-15T18:24:49.589Z,4.28
2023-05-15T18:27:16.677Z,1.48
2023-05-15T18:29:45.501Z,1.92
2023-05-15T18:32:12.780Z,7.25
2023-05-15T18:34:39.883Z,3.13
2023-05-15T18:37:06.981Z,3.47
2023-05-15T18:39:37.813Z,2.42
2023-05-15T18:42:05.486Z,2.83
2023-05-15T18:44:32.647Z,1.90
2023-05-15T18:46:59.754Z,2.28
2023-05-15T18:49:27.897Z,2.72
2023-05-15T18:51:55.040Z,3.20
2023-05-15T18:54:22.127Z,2.95
2023-05-15T18:56:50.637Z,1.60
2023-05-15T18:59:17.756Z,2.30
2023-05-15T19:01:44.939Z,1.67
2023-05-15T19:04:12.282Z,2.25
2023-05-15T19:06:39.397Z,3.97
2023-05-15T19:09:06.481Z,3.08
2023-05-15T19:11:33.559Z,3.38
2023-05-15T19:14:02.032Z,1.95
2023-05-15T19:16:29.381Z,3.30
2023-05-15T19:18:56.552Z,2.03
2023-05-15T19:21:23.778Z,2.90
2023-05-15T19:23:50.853Z,2.05
2023-05-15T19:26:17.974Z,3.88
2023-05-15T19:28:45.066Z,2.90
2023-05-15T19:31:24.049Z,3.25
2023-05-15T19:33:58.315Z,3.35
2023-05-15T19:36:25.594Z,3.63
2023-05-15T19:38:52.761Z,3.33
2023-05-15T19:41:19.907Z,2.83
2023-05-15T19:43:47.147Z,2.05
2023-05-15T19:46:15.707Z,4.05
2023-05-15T19:48:42.851Z,3.08
2023-05-15T19:51:09.976Z,2.10
2023-05-15T19:53:37.057Z,2.28
2023-05-15T19:56:05.022Z,3.50
2023-05-15T19:58:32.211Z,2.50
2023-05-15T20:00:59.340Z,2.40
2023-05-15T20:03:27.932Z,2.00
2023-05-15T20:05:55.081Z,2.25
2023-05-15T20:08:22.168Z,3.20
2023-05-15T20:10:51.017Z,2.13
2023-05-15T20:13:18.218Z,5.15
2023-05-15T20:15:45.508Z,1.92
2023-05-15T20:18:12.865Z,2.33
2023-05-15T20:20:42.647Z,3.15
2023-05-15T20:23:09.773Z,2.88
2023-05-15T20:25:36.905Z,1.90
2023-05-15T20:28:04.064Z,3.17
2023-05-15T20:30:31.168Z,3.38
2023-05-15T20:32:58.474Z,2.15
2023-05-15T20:35:25.859Z,4.57
2023-05-15T20:37:54.447Z,1.85
2023-05-15T20:40:21.601Z,2.58
2023-05-15T20:42:49.101Z,2.10
2023-05-15T20:45:16.281Z,2.90
2023-05-15T20:47:43.703Z,1.58
2023-05-15T20:50:11.535Z,5.15
2023-05-15T20:52:39.062Z,3.25
2023-05-15T20:55:13.946Z,3.05
2023-05-15T20:57:41.038Z,2.30
2023-05-15T21:00:09.137Z,4.07
2023-05-15T21:02:36.333Z,2.45
2023-05-15T21:05:03.574Z,2.50
2023-05-15T21:07:30.671Z,2.15
2023-05-15T21:09:57.869Z,2.05
2023-05-15T21:12:26.293Z,1.52
2023-05-15T21:14:53.534Z,2.00
2023-05-15T21:17:20.731Z,3.08
2023-05-15T21:19:48.062Z,4.15
2023-05-15T21:22:15.170Z,4.18
2023-05-15T21:24:42.459Z,3.92
2023-05-15T21:27:09.550Z,3.05
2023-05-15T21:29:38.433Z,2.75
2023-05-15T21:32:06.526Z,4.57
2023-05-15T21:34:33.631Z,1.90
2023-05-15T21:37:00.904Z,3.97
2023-05-15T21:39:28.234Z,1.70
2023-05-15T21:41:55.338Z,3.17
2023-05-15T21:44:22.538Z,3.17
2023-05-15T21:46:51.038Z,2.47
2023-05-15T21:49:18.330Z,2.30
2023-05-15T21:51:45.416Z,3.08
2023-05-15T21:54:12.697Z,3.00
2023-05-15T21:56:39.839Z,1.88
2023-05-15T21:59:06.951Z,1.98
2023-05-15T22:01:34.436Z,2.22
2023-05-15T22:04:03.097Z,2.30
2023-05-15T22:06:30.475Z,2.53
2023-05-15T22:08:57.596Z,1.58
2023-05-15T22:11:25.226Z,2.60
2023-05-15T22:13:52.302Z,1.40
2023-05-15T22:16:19.557Z,2.70
2023-05-15T22:18:46.663Z,3.40
2023-05-15T22:21:15.238Z,3.92
2023-05-15T22:23:42.970Z,6.30
2023-05-15T22:26:10.128Z,1.85
2023-05-15T22:28:37.396Z,1.88
2023-05-15T22:31:04.898Z,1.98
2023-05-15T22:33:31.977Z,1.52
2023-05-15T22:35:59.076Z,3.60
2023-05-15T22:38:27.575Z,1.33
2023-05-15T22:40:54.701Z,1.88
2023-05-15T22:43:21.786Z,1.45
2023-05-15T22:45:48.937Z,1.33
2023-05-15T22:48:16.035Z,1.83
2023-05-15T22:50:44.037Z,1.67
2023-05-15T22:53:11.148Z,2.95
2023-05-15T22:55:39.581Z,1.88
2023-05-15T22:58:06.660Z,1.50
2023-05-15T23:00:33.932Z,1.40
2023-05-15T23:03:01.056Z,1.67
2023-05-15T23:05:28.223Z,2.13
2023-05-15T23:07:55.426Z,2.88
2023-05-15T23:10:22.762Z,2.28
2023-05-15T23:12:51.161Z,1.30
2023-05-15T23:15:18.307Z,1.52
2023-05-15T23:17:45.504Z,1.85
2023-05-15T23:20:12.763Z,2.67
2023-05-15T23:22:39.913Z,2.65
2023-05-15T23:25:08.454Z,2.55
2023-05-15T23:27:35.589Z,1.60
2023-05-15T23:30:04.918Z,2.08
2023-05-15T23:32:32.023Z,2.83
2023-05-15T23:34:59.608Z,1.80
2023-05-15T23:37:26.700Z,1.85
2023-05-15T23:39:53.777Z,2.10
2023-05-15T23:42:21.264Z,1.88
2023-05-15T23:44:48.489Z,1.92
2023-05-15T23:47:16.922Z,1.58
2023-05-15T23:49:44.043Z,2.00
2023-05-15T23:52:11.287Z,2.50
2023-05-15T23:54:38.363Z,1.85
2023-05-15T23:57:05.991Z,1.67
2023-05-15T23:59:33.086Z,1.23
